»·PEaware :: N415CS KMRY-2O3

N415CS :: KMRY-2O3

FLIGHT INFORMATION

Flight Status: Arrived
Operator: Privately registered:
United States
More flights under this callsign
Pilot: Kyle A. (14988)
Aircraft: CESSNA 182 SKYLANE
(C182)
More flights by this aircraft type
Origin: KMRY Monterey Peninsula
United States
Destination: 2O3 Angwin-Parrett
United States
More flights between these airports :: More routes between these airports
Route: MRY4 SNS V25 SFO V87 SGD
File this flight plan on PilotEdge
Remarks:
Altitude:
(Current/Filed)
6,000ft
Speed:
(Current/Filed)
140kts
Departed: 15-Feb-18 01:03 PM
Arrived: 15-Feb-18 02:05 PM
Distance/Time
Traveled:
122nm/1:02
Distance/Time
To Go:
Arrived

Flight Plot

Page will automatically refresh every two minutes.

Flight plan parsing failed; only flown route is shown


Map Options




Map Legend


Flown Route
Filed Route
Departure Airport
Arrival Airport
Navaid (VOR, NDB)
Fix

Horizontal Profiles

Position Reports

Time Latitude Longitude Heading Altitude Ground
Speed
15-Feb-18 12:58 36.589017 -121.856461 345 208ft 0kts
15-Feb-18 12:59 36.589019 -121.856461 345 208ft 0kts
15-Feb-18 13:00 36.589021 -121.856462 345 208ft 0kts
15-Feb-18 13:01 36.589024 -121.856463 345 208ft 0kts
15-Feb-18 13:02 36.589026 -121.856464 345 208ft 0kts
15-Feb-18 13:03 36.589028 -121.856464 345 208ft 0kts
15-Feb-18 13:04 36.589463 -121.855995 71 208ft 9kts
15-Feb-18 13:05 36.589159 -121.853204 110 208ft 14kts
15-Feb-18 13:06 36.587513 -121.848324 111 208ft 16kts
15-Feb-18 13:07 36.585578 -121.843062 112 208ft 17kts
15-Feb-18 13:08 36.583715 -121.837558 112 208ft 17kts
15-Feb-18 13:09 36.582836 -121.834629 95 208ft 0kts
15-Feb-18 13:10 36.585352 -121.839729 296 245ft 84kts
15-Feb-18 13:11 36.601283 -121.857697 342 1539ft 79kts
15-Feb-18 13:12 36.623845 -121.866837 345 2649ft 90kts
15-Feb-18 13:13 36.644118 -121.873737 1 3753ft 60kts
15-Feb-18 13:14 36.662278 -121.872608 7 4531ft 73kts
15-Feb-18 13:15 36.685430 -121.870845 6 5350ft 87kts
15-Feb-18 13:16 36.710982 -121.869355 6 5992ft 110kts
15-Feb-18 13:17 36.745357 -121.866669 6 6003ft 130kts
15-Feb-18 13:18 36.782062 -121.863761 5 6007ft 132kts
15-Feb-18 13:19 36.818856 -121.860873 5 6009ft 132kts
15-Feb-18 13:20 36.851677 -121.873707 304 6012ft 145kts
15-Feb-18 13:21 36.874007 -121.915263 315 6010ft 143kts
15-Feb-18 13:22 36.899564 -121.953721 315 5988ft 143kts
15-Feb-18 13:23 36.925148 -121.992026 315 5991ft 143kts
15-Feb-18 13:24 36.950510 -122.030033 316 5992ft 142kts
15-Feb-18 13:25 36.976175 -122.068511 316 6003ft 144kts
15-Feb-18 13:26 37.010129 -122.088037 341 6010ft 134kts
15-Feb-18 13:27 37.044667 -122.105865 342 6014ft 134kts
15-Feb-18 13:28 37.079246 -122.123268 343 6010ft 134kts
15-Feb-18 13:29 37.108687 -122.138121 343 6010ft 134kts
15-Feb-18 13:30 37.143386 -122.155578 342 6002ft 134kts
15-Feb-18 13:31 37.178156 -122.173083 342 6001ft 134kts
15-Feb-18 13:32 37.212857 -122.190602 342 6006ft 134kts
15-Feb-18 13:33 37.242859 -122.205698 342 6007ft 135kts
15-Feb-18 13:34 37.277737 -122.223279 342 6007ft 135kts
15-Feb-18 13:35 37.312374 -122.240784 342 6031ft 134kts
15-Feb-18 13:36 37.347129 -122.258355 342 6009ft 135kts
15-Feb-18 13:37 37.382081 -122.276039 342 6008ft 134kts
15-Feb-18 13:38 37.417553 -122.291943 346 6010ft 135kts
15-Feb-18 13:39 37.453347 -122.306132 346 6009ft 134kts
15-Feb-18 13:40 37.488808 -122.320539 346 6013ft 133kts
15-Feb-18 13:41 37.518305 -122.332555 346 6014ft 134kts
15-Feb-18 13:42 37.559844 -122.349509 346 6006ft 134kts
15-Feb-18 13:43 37.595318 -122.364002 345 6009ft 134kts
15-Feb-18 13:44 37.625623 -122.374606 354 6009ft 136kts
15-Feb-18 13:45 37.650021 -122.414946 309 6007ft 150kts
15-Feb-18 13:46 37.681893 -122.452727 351 6014ft 133kts
15-Feb-18 13:47 37.713237 -122.448904 11 6004ft 138kts
15-Feb-18 13:48 37.756439 -122.440519 8 5997ft 132kts
15-Feb-18 13:49 37.787251 -122.435461 8 6001ft 134kts
15-Feb-18 13:50 37.826072 -122.429274 8 5994ft 143kts
15-Feb-18 13:51 37.863604 -122.423339 8 5995ft 132kts
15-Feb-18 13:52 37.901827 -122.417275 8 6004ft 143kts
15-Feb-18 13:53 37.939598 -122.411290 8 5990ft 133kts
15-Feb-18 13:54 37.976308 -122.405324 10 5999ft 132kts
15-Feb-18 13:55 38.012563 -122.398016 8 6000ft 131kts
15-Feb-18 13:56 38.049062 -122.392301 8 6000ft 132kts
15-Feb-18 13:57 38.085470 -122.386915 7 6000ft 131kts
15-Feb-18 13:58 38.122017 -122.381548 7 6000ft 132kts
15-Feb-18 13:59 38.158481 -122.376192 7 6003ft 132kts
15-Feb-18 14:00 38.195779 -122.375515 355 6004ft 136kts
15-Feb-18 14:01 38.233006 -122.381434 355 5998ft 133kts
15-Feb-18 14:02 38.269734 -122.387133 355 6003ft 133kts
15-Feb-18 14:03 38.301221 -122.392036 355 6005ft 136kts
15-Feb-18 14:04 38.338269 -122.397786 355 5996ft 135kts
15-Feb-18 14:05 38.378291 -122.403741 355 5362ft 149kts
15-Feb-18 14:06 38.415098 -122.409054 355 4744ft 150kts
15-Feb-18 14:07 38.456663 -122.414863 355 4054ft 151kts
15-Feb-18 14:08 38.496348 -122.420388 355 3985ft 124kts
15-Feb-18 14:09 38.530018 -122.427692 353 3579ft 113kts
15-Feb-18 14:10 38.557843 -122.432517 355 2411ft 84kts
15-Feb-18 14:11 38.577142 -122.435102 354 1810ft 43kts
15-Feb-18 14:12 38.577851 -122.435156 173 1808ft 16kts
15-Feb-18 14:13 38.573388 -122.434614 173 1808ft 14kts
15-Feb-18 14:14 38.571997 -122.434593 58 1808ft 0kts
15-Feb-18 14:15 38.571968 -122.434711 68 1808ft 0kts
15-Feb-18 14:16 38.571968 -122.434711 68 1808ft 0kts
15-Feb-18 14:17 38.571968 -122.434711 68 1808ft 0kts
15-Feb-18 14:18 38.571968 -122.434711 68 1808ft 0kts
15-Feb-18 14:19 38.571968 -122.434711 68 1808ft 0kts
15-Feb-18 14:20 38.571968 -122.434711 68 1808ft 0kts
15-Feb-18 14:21 38.571968 -122.434711 68 1808ft 0kts
15-Feb-18 14:22 38.571968 -122.434711 68 1808ft 0kts
15-Feb-18 14:23 38.571968 -122.434711 68 1808ft 0kts
15-Feb-18 14:24 38.571968 -122.434711 68 1808ft 0kts

Navigation Log

Ident Type
Flight plan parsing failed, navigation log unavailable